Sultan, Canada
Current Conditions -  °F | °C
As of 1:00 PM on Tuesday 21 Oct 2014 (Local Time) from CYLD Reporting Station
Broken Clouds Broken Clouds  
Wind Chill: 26°   Ceiling: 1300
Heat Index: 32°   Visibility: 15mi
Dew Point: 27°   Wind: 7mph
Humidity: 80%   Direction: 30°NNE
Pressure: 30.26"   Gusts: NA
Location:  47.58°N, 82.77°W
Report Text: CYLD 211700Z 03006KT 15SM BKN013 00/M03 A3026 RMK SC5 SLP269
Loading
Personal Weather Stations






























Interactive Weather Map
Tropical Storm Tracking
New forecast layout! Learn more

10-Day Weather Forecast

Advertisements
Track Severe Weather on mobile